sensor_id;sensor_type;location;lat;lon;timestamp;pressure;altitude;pressure_sealevel;temperature
69552;BMP280;63774;45.292;11.784;2023-06-19T00:02:01;101808.60;;;25.86
69552;BMP280;63774;45.292;11.784;2023-06-19T00:04:26;101813.09;;;25.86
69552;BMP280;63774;45.292;11.784;2023-06-19T00:06:53;101812.29;;;25.85
69552;BMP280;63774;45.292;11.784;2023-06-19T00:09:18;101808.77;;;25.83
69552;BMP280;63774;45.292;11.784;2023-06-19T00:11:44;101808.84;;;25.83
69552;BMP280;63774;45.292;11.784;2023-06-19T00:14:10;101810.20;;;25.82
69552;BMP280;63774;45.292;11.784;2023-06-19T00:16:36;101812.12;;;25.80
69552;BMP280;63774;45.292;11.784;2023-06-19T00:19:01;101814.09;;;25.79
69552;BMP280;63774;45.292;11.784;2023-06-19T00:21:28;101815.67;;;25.79
69552;BMP280;63774;45.292;11.784;2023-06-19T00:23:54;101820.52;;;25.78
69552;BMP280;63774;45.292;11.784;2023-06-19T00:26:20;101821.76;;;25.76
69552;BMP280;63774;45.292;11.784;2023-06-19T00:28:51;101827.39;;;25.75
69552;BMP280;63774;45.292;11.784;2023-06-19T00:31:16;101825.65;;;25.73
69552;BMP280;63774;45.292;11.784;2023-06-19T00:33:43;101822.61;;;25.71
69552;BMP280;63774;45.292;11.784;2023-06-19T00:36:10;101821.91;;;25.69
69552;BMP280;63774;45.292;11.784;2023-06-19T00:38:36;101819.55;;;25.67
69552;BMP280;63774;45.292;11.784;2023-06-19T00:41:01;101820.34;;;25.67
69552;BMP280;63774;45.292;11.784;2023-06-19T00:43:27;101821.34;;;25.66
69552;BMP280;63774;45.292;11.784;2023-06-19T00:45:53;101820.91;;;25.65
69552;BMP280;63774;45.292;11.784;2023-06-19T00:48:18;101823.01;;;25.64
69552;BMP280;63774;45.292;11.784;2023-06-19T00:50:44;101820.98;;;25.63
69552;BMP280;63774;45.292;11.784;2023-06-19T00:53:09;101822.29;;;25.63
69552;BMP280;63774;45.292;11.784;2023-06-19T00:55:36;101821.73;;;25.61
69552;BMP280;63774;45.292;11.784;2023-06-19T00:58:02;101821.65;;;25.60
69552;BMP280;63774;45.292;11.784;2023-06-19T01:00:28;101820.73;;;25.59
69552;BMP280;63774;45.292;11.784;2023-06-19T01:02:53;101824.02;;;25.58
69552;BMP280;63774;45.292;11.784;2023-06-19T01:05:19;101826.15;;;25.58
69552;BMP280;63774;45.292;11.784;2023-06-19T01:10:33;101825.80;;;25.56
69552;BMP280;63774;45.292;11.784;2023-06-19T01:13:19;101827.08;;;25.54
69552;BMP280;63774;45.292;11.784;2023-06-19T01:15:47;101832.54;;;25.54
69552;BMP280;63774;45.292;11.784;2023-06-19T01:18:13;101836.96;;;25.53
69552;BMP280;63774;45.292;11.784;2023-06-19T01:20:40;101836.48;;;25.50
69552;BMP280;63774;45.292;11.784;2023-06-19T01:23:09;101834.50;;;25.51
69552;BMP280;63774;45.292;11.784;2023-06-19T01:25:35;101835.81;;;25.48
69552;BMP280;63774;45.292;11.784;2023-06-19T01:28:02;101840.92;;;25.48
69552;BMP280;63774;45.292;11.784;2023-06-19T01:30:30;101843.23;;;25.48
69552;BMP280;63774;45.292;11.784;2023-06-19T01:33:19;101847.13;;;25.48
69552;BMP280;63774;45.292;11.784;2023-06-19T01:35:47;101850.98;;;25.46
69552;BMP280;63774;45.292;11.784;2023-06-19T01:38:14;101852.06;;;25.45
69552;BMP280;63774;45.292;11.784;2023-06-19T01:40:40;101856.52;;;25.44
69552;BMP280;63774;45.292;11.784;2023-06-19T01:43:07;101859.40;;;25.44
69552;BMP280;63774;45.292;11.784;2023-06-19T01:45:33;101857.59;;;25.42
69552;BMP280;63774;45.292;11.784;2023-06-19T01:47:58;101859.69;;;25.42
69552;BMP280;63774;45.292;11.784;2023-06-19T01:50:24;101860.56;;;25.43
69552;BMP280;63774;45.292;11.784;2023-06-19T01:52:50;101860.73;;;25.43
69552;BMP280;63774;45.292;11.784;2023-06-19T01:55:16;101861.30;;;25.42
69552;BMP280;63774;45.292;11.784;2023-06-19T01:57:41;101863.41;;;25.42
69552;BMP280;63774;45.292;11.784;2023-06-19T02:00:07;101866.63;;;25.43
69552;BMP280;63774;45.292;11.784;2023-06-19T02:02:33;101868.27;;;25.42
69552;BMP280;63774;45.292;11.784;2023-06-19T02:04:59;101864.32;;;25.41
69552;BMP280;63774;45.292;11.784;2023-06-19T02:07:24;101862.90;;;25.41
69552;BMP280;63774;45.292;11.784;2023-06-19T02:09:50;101863.98;;;25.41
69552;BMP280;63774;45.292;11.784;2023-06-19T02:12:15;101864.31;;;25.41
69552;BMP280;63774;45.292;11.784;2023-06-19T02:14:41;101862.48;;;25.40
69552;BMP280;63774;45.292;11.784;2023-06-19T02:17:06;101865.20;;;25.40
69552;BMP280;63774;45.292;11.784;2023-06-19T02:19:32;101866.64;;;25.40
69552;BMP280;63774;45.292;11.784;2023-06-19T02:21:57;101867.26;;;25.39
69552;BMP280;63774;45.292;11.784;2023-06-19T02:24:23;101866.83;;;25.38
69552;BMP280;63774;45.292;11.784;2023-06-19T02:26:48;101864.93;;;25.38
69552;BMP280;63774;45.292;11.784;2023-06-19T02:29:13;101863.13;;;25.37
69552;BMP280;63774;45.292;11.784;2023-06-19T02:31:39;101864.89;;;25.37
69552;BMP280;63774;45.292;11.784;2023-06-19T02:34:05;101865.77;;;25.37
69552;BMP280;63774;45.292;11.784;2023-06-19T02:36:31;101865.20;;;25.34
69552;BMP280;63774;45.292;11.784;2023-06-19T02:38:56;101873.94;;;25.33
69552;BMP280;63774;45.292;11.784;2023-06-19T02:41:22;101879.72;;;25.34
69552;BMP280;63774;45.292;11.784;2023-06-19T02:43:47;101879.82;;;25.33
69552;BMP280;63774;45.292;11.784;2023-06-19T02:46:13;101879.84;;;25.33
69552;BMP280;63774;45.292;11.784;2023-06-19T02:48:39;101878.23;;;25.32
69552;BMP280;63774;45.292;11.784;2023-06-19T02:51:04;101879.01;;;25.33
69552;BMP280;63774;45.292;11.784;2023-06-19T02:53:30;101875.53;;;25.31
69552;BMP280;63774;45.292;11.784;2023-06-19T02:55:55;101874.08;;;25.30
69552;BMP280;63774;45.292;11.784;2023-06-19T02:58:21;101872.89;;;25.30
69552;BMP280;63774;45.292;11.784;2023-06-19T03:00:46;101873.31;;;25.29
69552;BMP280;63774;45.292;11.784;2023-06-19T03:03:12;101878.23;;;25.28
69552;BMP280;63774;45.292;11.784;2023-06-19T03:05:37;101880.81;;;25.28
69552;BMP280;63774;45.292;11.784;2023-06-19T03:08:04;101882.52;;;25.29
69552;BMP280;63774;45.292;11.784;2023-06-19T03:10:29;101884.41;;;25.29
69552;BMP280;63774;45.292;11.784;2023-06-19T03:12:55;101886.39;;;25.30
69552;BMP280;63774;45.292;11.784;2023-06-19T03:15:20;101890.55;;;25.29
69552;BMP280;63774;45.292;11.784;2023-06-19T03:17:46;101889.44;;;25.28
69552;BMP280;63774;45.292;11.784;2023-06-19T03:20:12;101891.05;;;25.28
69552;BMP280;63774;45.292;11.784;2023-06-19T03:22:41;101890.40;;;25.28
69552;BMP280;63774;45.292;11.784;2023-06-19T03:25:07;101891.21;;;25.28
69552;BMP280;63774;45.292;11.784;2023-06-19T03:27:33;101893.14;;;25.29
69552;BMP280;63774;45.292;11.784;2023-06-19T03:29:59;101892.55;;;25.30
69552;BMP280;63774;45.292;11.784;2023-06-19T03:32:24;101887.31;;;25.28
69552;BMP280;63774;45.292;11.784;2023-06-19T03:34:50;101883.91;;;25.28
69552;BMP280;63774;45.292;11.784;2023-06-19T03:37:15;101885.66;;;25.29
69552;BMP280;63774;45.292;11.784;2023-06-19T03:39:42;101884.30;;;25.28
69552;BMP280;63774;45.292;11.784;2023-06-19T03:42:07;101881.21;;;25.27
69552;BMP280;63774;45.292;11.784;2023-06-19T03:44:33;101885.60;;;25.28
69552;BMP280;63774;45.292;11.784;2023-06-19T03:46:58;101891.09;;;25.28
69552;BMP280;63774;45.292;11.784;2023-06-19T03:49:24;101893.52;;;25.27
69552;BMP280;63774;45.292;11.784;2023-06-19T03:51:49;101892.84;;;25.27
69552;BMP280;63774;45.292;11.784;2023-06-19T03:54:15;101890.13;;;25.28
69552;BMP280;63774;45.292;11.784;2023-06-19T03:56:40;101886.74;;;25.28
69552;BMP280;63774;45.292;11.784;2023-06-19T03:59:05;101887.55;;;25.28
69552;BMP280;63774;45.292;11.784;2023-06-19T04:01:31;101895.16;;;25.27
69552;BMP280;63774;45.292;11.784;2023-06-19T04:03:56;101900.29;;;25.27
69552;BMP280;63774;45.292;11.784;2023-06-19T04:06:22;101906.48;;;25.27
69552;BMP280;63774;45.292;11.784;2023-06-19T04:08:48;101907.83;;;25.26
69552;BMP280;63774;45.292;11.784;2023-06-19T04:11:13;101905.83;;;25.24
69552;BMP280;63774;45.292;11.784;2023-06-19T04:13:39;101898.78;;;25.25
69552;BMP280;63774;45.292;11.784;2023-06-19T04:16:04;101895.34;;;25.23
69552;BMP280;63774;45.292;11.784;2023-06-19T04:18:29;101896.55;;;25.23
69552;BMP280;63774;45.292;11.784;2023-06-19T04:20:55;101897.57;;;25.24
69552;BMP280;63774;45.292;11.784;2023-06-19T04:23:20;101896.29;;;25.23
69552;BMP280;63774;45.292;11.784;2023-06-19T04:25:46;101895.70;;;25.25
69552;BMP280;63774;45.292;11.784;2023-06-19T04:28:11;101895.10;;;25.24
69552;BMP280;63774;45.292;11.784;2023-06-19T04:30:37;101896.93;;;25.24
69552;BMP280;63774;45.292;11.784;2023-06-19T04:33:04;101896.38;;;25.25
69552;BMP280;63774;45.292;11.784;2023-06-19T04:35:31;101898.14;;;25.26
69552;BMP280;63774;45.292;11.784;2023-06-19T04:37:56;101901.23;;;25.26
69552;BMP280;63774;45.292;11.784;2023-06-19T04:40:26;101900.60;;;25.26
69552;BMP280;63774;45.292;11.784;2023-06-19T04:42:52;101898.08;;;25.27
69552;BMP280;63774;45.292;11.784;2023-06-19T04:45:19;101897.77;;;25.28
69552;BMP280;63774;45.292;11.784;2023-06-19T04:47:44;101899.73;;;25.29
69552;BMP280;63774;45.292;11.784;2023-06-19T04:50:10;101904.33;;;25.31
69552;BMP280;63774;45.292;11.784;2023-06-19T04:52:36;101908.17;;;25.35
69552;BMP280;63774;45.292;11.784;2023-06-19T04:55:05;101912.88;;;25.41
69552;BMP280;63774;45.292;11.784;2023-06-19T04:57:30;101908.02;;;25.41
69552;BMP280;63774;45.292;11.784;2023-06-19T04:59:56;101909.27;;;25.42
69552;BMP280;63774;45.292;11.784;2023-06-19T05:02:21;101908.72;;;25.44
69552;BMP280;63774;45.292;11.784;2023-06-19T05:04:49;101907.95;;;25.44
69552;BMP280;63774;45.292;11.784;2023-06-19T05:07:14;101904.80;;;25.44
69552;BMP280;63774;45.292;11.784;2023-06-19T05:09:43;101906.05;;;25.45
69552;BMP280;63774;45.292;11.784;2023-06-19T05:12:09;101914.43;;;25.48
69552;BMP280;63774;45.292;11.784;2023-06-19T05:14:34;101916.79;;;25.48
69552;BMP280;63774;45.292;11.784;2023-06-19T05:17:00;101918.05;;;25.49
69552;BMP280;63774;45.292;11.784;2023-06-19T05:19:25;101915.35;;;25.49
69552;BMP280;63774;45.292;11.784;2023-06-19T05:21:51;101912.98;;;25.52
69552;BMP280;63774;45.292;11.784;2023-06-19T05:24:17;101910.94;;;25.54
69552;BMP280;63774;45.292;11.784;2023-06-19T05:26:42;101904.84;;;25.58
69552;BMP280;63774;45.292;11.784;2023-06-19T05:29:07;101903.62;;;25.58
69552;BMP280;63774;45.292;11.784;2023-06-19T05:31:34;101899.74;;;25.59
69552;BMP280;63774;45.292;11.784;2023-06-19T05:33:59;101901.61;;;25.62
69552;BMP280;63774;45.292;11.784;2023-06-19T05:36:25;101902.11;;;25.63
69552;BMP280;63774;45.292;11.784;2023-06-19T05:38:50;101902.10;;;25.65
69552;BMP280;63774;45.292;11.784;2023-06-19T05:41:15;101900.92;;;25.67
69552;BMP280;63774;45.292;11.784;2023-06-19T05:43:41;101904.47;;;25.69
69552;BMP280;63774;45.292;11.784;2023-06-19T05:46:06;101910.52;;;25.72
69552;BMP280;63774;45.292;11.784;2023-06-19T05:48:32;101913.42;;;25.74
69552;BMP280;63774;45.292;11.784;2023-06-19T05:50:57;101913.64;;;25.77
69552;BMP280;63774;45.292;11.784;2023-06-19T05:53:23;101919.00;;;25.80
69552;BMP280;63774;45.292;11.784;2023-06-19T05:55:48;101921.36;;;25.82
69552;BMP280;63774;45.292;11.784;2023-06-19T05:58:14;101921.69;;;25.85
69552;BMP280;63774;45.292;11.784;2023-06-19T06:00:39;101919.13;;;25.87
69552;BMP280;63774;45.292;11.784;2023-06-19T06:03:05;101918.77;;;25.87
69552;BMP280;63774;45.292;11.784;2023-06-19T06:05:30;101917.71;;;25.88
69552;BMP280;63774;45.292;11.784;2023-06-19T06:07:56;101913.01;;;25.86
69552;BMP280;63774;45.292;11.784;2023-06-19T06:10:22;101915.02;;;25.88
69552;BMP280;63774;45.292;11.784;2023-06-19T06:12:48;101916.42;;;25.89
69552;BMP280;63774;45.292;11.784;2023-06-19T06:15:14;101913.84;;;25.89
69552;BMP280;63774;45.292;11.784;2023-06-19T06:17:39;101914.77;;;25.90
69552;BMP280;63774;45.292;11.784;2023-06-19T06:20:05;101911.45;;;25.90
69552;BMP280;63774;45.292;11.784;2023-06-19T06:22:36;101913.54;;;25.90
69552;BMP280;63774;45.292;11.784;2023-06-19T06:25:01;101916.95;;;25.92
69552;BMP280;63774;45.292;11.784;2023-06-19T06:27:27;101915.15;;;25.93
69552;BMP280;63774;45.292;11.784;2023-06-19T06:29:52;101910.30;;;25.95
69552;BMP280;63774;45.292;11.784;2023-06-19T06:32:17;101912.85;;;25.97
69552;BMP280;63774;45.292;11.784;2023-06-19T06:34:43;101913.48;;;25.96
69552;BMP280;63774;45.292;11.784;2023-06-19T06:37:09;101915.65;;;25.97
69552;BMP280;63774;45.292;11.784;2023-06-19T06:39:34;101916.34;;;25.99
69552;BMP280;63774;45.292;11.784;2023-06-19T06:42:00;101916.72;;;26.00
69552;BMP280;63774;45.292;11.784;2023-06-19T06:44:26;101919.70;;;26.03
69552;BMP280;63774;45.292;11.784;2023-06-19T06:46:51;101921.08;;;26.06
69552;BMP280;63774;45.292;11.784;2023-06-19T06:49:16;101920.73;;;26.08
69552;BMP280;63774;45.292;11.784;2023-06-19T06:51:42;101918.30;;;26.09
69552;BMP280;63774;45.292;11.784;2023-06-19T06:54:07;101915.26;;;26.09
69552;BMP280;63774;45.292;11.784;2023-06-19T06:56:33;101913.66;;;26.10
69552;BMP280;63774;45.292;11.784;2023-06-19T06:58:58;101913.36;;;26.13
69552;BMP280;63774;45.292;11.784;2023-06-19T07:01:24;101911.21;;;26.13
69552;BMP280;63774;45.292;11.784;2023-06-19T07:03:49;101909.48;;;26.15
69552;BMP280;63774;45.292;11.784;2023-06-19T07:06:14;101910.02;;;26.15
69552;BMP280;63774;45.292;11.784;2023-06-19T07:08:40;101914.68;;;26.16
69552;BMP280;63774;45.292;11.784;2023-06-19T07:11:07;101914.84;;;26.19
69552;BMP280;63774;45.292;11.784;2023-06-19T07:13:32;101916.36;;;26.21
69552;BMP280;63774;45.292;11.784;2023-06-19T07:15:57;101914.92;;;26.20
69552;BMP280;63774;45.292;11.784;2023-06-19T07:18:24;101918.67;;;26.21
69552;BMP280;63774;45.292;11.784;2023-06-19T07:20:49;101919.59;;;26.21
69552;BMP280;63774;45.292;11.784;2023-06-19T07:23:15;101918.50;;;26.23
69552;BMP280;63774;45.292;11.784;2023-06-19T07:25:41;101914.67;;;26.23
69552;BMP280;63774;45.292;11.784;2023-06-19T07:28:06;101911.63;;;26.24
69552;BMP280;63774;45.292;11.784;2023-06-19T07:30:31;101910.45;;;26.26
69552;BMP280;63774;45.292;11.784;2023-06-19T07:32:57;101911.39;;;26.26
69552;BMP280;63774;45.292;11.784;2023-06-19T07:35:22;101911.88;;;26.28
69552;BMP280;63774;45.292;11.784;2023-06-19T07:37:48;101909.11;;;26.28
69552;BMP280;63774;45.292;11.784;2023-06-19T07:40:13;101903.26;;;26.27
69552;BMP280;63774;45.292;11.784;2023-06-19T07:42:39;101900.52;;;26.27
69552;BMP280;63774;45.292;11.784;2023-06-19T07:45:05;101896.74;;;26.27
69552;BMP280;63774;45.292;11.784;2023-06-19T07:47:30;101897.46;;;26.28
69552;BMP280;63774;45.292;11.784;2023-06-19T07:49:56;101897.23;;;26.30
69552;BMP280;63774;45.292;11.784;2023-06-19T07:52:21;101894.89;;;26.30
69552;BMP280;63774;45.292;11.784;2023-06-19T07:54:57;101892.13;;;26.31
69552;BMP280;63774;45.292;11.784;2023-06-19T07:57:24;101887.70;;;26.32
69552;BMP280;63774;45.292;11.784;2023-06-19T07:59:50;101883.41;;;26.32
69552;BMP280;63774;45.292;11.784;2023-06-19T08:02:16;101881.08;;;26.31
69552;BMP280;63774;45.292;11.784;2023-06-19T08:04:42;101881.80;;;26.33
69552;BMP280;63774;45.292;11.784;2023-06-19T08:07:08;101885.70;;;26.34
69552;BMP280;63774;45.292;11.784;2023-06-19T08:09:33;101888.34;;;26.35
69552;BMP280;63774;45.292;11.784;2023-06-19T08:11:59;101891.14;;;26.34
69552;BMP280;63774;45.292;11.784;2023-06-19T08:14:24;101893.98;;;26.35
69552;BMP280;63774;45.292;11.784;2023-06-19T08:16:50;101892.80;;;26.34
69552;BMP280;63774;45.292;11.784;2023-06-19T08:19:15;101890.64;;;26.34
69552;BMP280;63774;45.292;11.784;2023-06-19T08:21:40;101889.54;;;26.35
69552;BMP280;63774;45.292;11.784;2023-06-19T08:24:06;101890.23;;;26.36
69552;BMP280;63774;45.292;11.784;2023-06-19T08:26:31;101893.09;;;26.35
69552;BMP280;63774;45.292;11.784;2023-06-19T08:28:57;101895.52;;;26.35
69552;BMP280;63774;45.292;11.784;2023-06-19T08:31:22;101900.39;;;26.36
69552;BMP280;63774;45.292;11.784;2023-06-19T08:33:54;101902.22;;;26.36
69552;BMP280;63774;45.292;11.784;2023-06-19T08:36:20;101903.05;;;26.36
69552;BMP280;63774;45.292;11.784;2023-06-19T08:38:45;101904.98;;;26.37
69552;BMP280;63774;45.292;11.784;2023-06-19T08:41:15;101903.02;;;26.36
69552;BMP280;63774;45.292;11.784;2023-06-19T08:43:41;101905.48;;;26.36
69552;BMP280;63774;45.292;11.784;2023-06-19T08:46:18;101907.89;;;26.37
69552;BMP280;63774;45.292;11.784;2023-06-19T08:48:44;101909.45;;;26.38
69552;BMP280;63774;45.292;11.784;2023-06-19T08:51:11;101904.60;;;26.38
69552;BMP280;63774;45.292;11.784;2023-06-19T08:53:44;101902.83;;;26.39
69552;BMP280;63774;45.292;11.784;2023-06-19T08:56:10;101903.96;;;26.39
69552;BMP280;63774;45.292;11.784;2023-06-19T08:58:36;101903.48;;;26.39
69552;BMP280;63774;45.292;11.784;2023-06-19T09:01:02;101903.29;;;26.39
69552;BMP280;63774;45.292;11.784;2023-06-19T09:03:27;101905.50;;;26.40
69552;BMP280;63774;45.292;11.784;2023-06-19T09:05:52;101905.14;;;26.40
69552;BMP280;63774;45.292;11.784;2023-06-19T09:08:19;101901.52;;;26.39
69552;BMP280;63774;45.292;11.784;2023-06-19T09:11:04;101899.48;;;26.39
69552;BMP280;63774;45.292;11.784;2023-06-19T09:13:31;101903.55;;;26.41
69552;BMP280;63774;45.292;11.784;2023-06-19T09:15:59;101900.16;;;26.39
69552;BMP280;63774;45.292;11.784;2023-06-19T09:18:25;101901.50;;;26.39
69552;BMP280;63774;45.292;11.784;2023-06-19T09:20:53;101903.35;;;26.40
69552;BMP280;63774;45.292;11.784;2023-06-19T09:23:19;101902.34;;;26.40
69552;BMP280;63774;45.292;11.784;2023-06-19T09:25:45;101901.52;;;26.40
69552;BMP280;63774;45.292;11.784;2023-06-19T09:28:22;101901.25;;;26.40
69552;BMP280;63774;45.292;11.784;2023-06-19T09:30:55;101902.63;;;26.41
69552;BMP280;63774;45.292;11.784;2023-06-19T09:33:22;101899.41;;;26.41
69552;BMP280;63774;45.292;11.784;2023-06-19T09:35:49;101896.96;;;26.41
69552;BMP280;63774;45.292;11.784;2023-06-19T09:38:17;101896.64;;;26.42
69552;BMP280;63774;45.292;11.784;2023-06-19T09:40:47;101897.55;;;26.44
69552;BMP280;63774;45.292;11.784;2023-06-19T09:43:18;101889.48;;;26.41
69552;BMP280;63774;45.292;11.784;2023-06-19T09:45:48;101891.48;;;26.43
69552;BMP280;63774;45.292;11.784;2023-06-19T09:48:14;101888.72;;;26.42
69552;BMP280;63774;45.292;11.784;2023-06-19T09:50:44;101888.08;;;26.42
69552;BMP280;63774;45.292;11.784;2023-06-19T09:53:10;101888.70;;;26.41
69552;BMP280;63774;45.292;11.784;2023-06-19T09:55:37;101894.33;;;26.41
69552;BMP280;63774;45.292;11.784;2023-06-19T09:58:03;101889.18;;;26.40
69552;BMP280;63774;45.292;11.784;2023-06-19T10:00:31;101885.15;;;26.40
69552;BMP280;63774;45.292;11.784;2023-06-19T10:02:57;101888.27;;;26.39
69552;BMP280;63774;45.292;11.784;2023-06-19T10:05:29;101891.63;;;26.39
69552;BMP280;63774;45.292;11.784;2023-06-19T10:07:55;101888.08;;;26.39
69552;BMP280;63774;45.292;11.784;2023-06-19T10:10:26;101893.08;;;26.38
69552;BMP280;63774;45.292;11.784;2023-06-19T10:12:55;101892.66;;;26.38
69552;BMP280;63774;45.292;11.784;2023-06-19T10:15:23;101888.69;;;26.38
69552;BMP280;63774;45.292;11.784;2023-06-19T10:18:01;101882.34;;;26.38
69552;BMP280;63774;45.292;11.784;2023-06-19T10:20:32;101879.26;;;26.38
69552;BMP280;63774;45.292;11.784;2023-06-19T10:23:17;101882.86;;;26.38
69552;BMP280;63774;45.292;11.784;2023-06-19T10:25:45;101883.00;;;26.38
69552;BMP280;63774;45.292;11.784;2023-06-19T10:28:31;101881.23;;;26.38
69552;BMP280;63774;45.292;11.784;2023-06-19T10:31:03;101888.73;;;26.39
69552;BMP280;63774;45.292;11.784;2023-06-19T10:33:34;101888.95;;;26.40
69552;BMP280;63774;45.292;11.784;2023-06-19T10:36:21;101892.02;;;26.40
69552;BMP280;63774;45.292;11.784;2023-06-19T10:38:48;101888.95;;;26.41
69552;BMP280;63774;45.292;11.784;2023-06-19T10:41:18;101887.30;;;26.40
69552;BMP280;63774;45.292;11.784;2023-06-19T10:43:58;101891.29;;;26.41
69552;BMP280;63774;45.292;11.784;2023-06-19T10:46:25;101890.01;;;26.41
69552;BMP280;63774;45.292;11.784;2023-06-19T10:48:54;101893.13;;;26.41
69552;BMP280;63774;45.292;11.784;2023-06-19T10:51:24;101894.22;;;26.41
69552;BMP280;63774;45.292;11.784;2023-06-19T10:53:50;101893.86;;;26.43
69552;BMP280;63774;45.292;11.784;2023-06-19T10:56:20;101887.63;;;26.43
69552;BMP280;63774;45.292;11.784;2023-06-19T10:58:45;101890.11;;;26.44
69552;BMP280;63774;45.292;11.784;2023-06-19T11:01:11;101888.04;;;26.45
69552;BMP280;63774;45.292;11.784;2023-06-19T11:03:37;101885.90;;;26.44
69552;BMP280;63774;45.292;11.784;2023-06-19T11:06:03;101881.63;;;26.45
69552;BMP280;63774;45.292;11.784;2023-06-19T11:08:28;101881.50;;;26.46
69552;BMP280;63774;45.292;11.784;2023-06-19T11:10:55;101875.46;;;26.45
69552;BMP280;63774;45.292;11.784;2023-06-19T11:13:20;101877.45;;;26.46
69552;BMP280;63774;45.292;11.784;2023-06-19T11:15:49;101875.29;;;26.46
69552;BMP280;63774;45.292;11.784;2023-06-19T11:18:17;101874.27;;;26.46
69552;BMP280;63774;45.292;11.784;2023-06-19T11:20:47;101874.92;;;26.47
69552;BMP280;63774;45.292;11.784;2023-06-19T11:23:14;101873.42;;;26.48
69552;BMP280;63774;45.292;11.784;2023-06-19T11:25:41;101874.81;;;26.48
69552;BMP280;63774;45.292;11.784;2023-06-19T11:28:17;101873.86;;;26.47
69552;BMP280;63774;45.292;11.784;2023-06-19T11:30:48;101872.40;;;26.48
69552;BMP280;63774;45.292;11.784;2023-06-19T11:33:17;101869.77;;;26.48
69552;BMP280;63774;45.292;11.784;2023-06-19T11:35:54;101866.95;;;26.49
69552;BMP280;63774;45.292;11.784;2023-06-19T11:38:25;101865.63;;;26.50
69552;BMP280;63774;45.292;11.784;2023-06-19T11:40:51;101860.52;;;26.49
69552;BMP280;63774;45.292;11.784;2023-06-19T11:43:28;101863.05;;;26.49
69552;BMP280;63774;45.292;11.784;2023-06-19T11:46:01;101858.95;;;26.50
69552;BMP280;63774;45.292;11.784;2023-06-19T11:48:27;101858.13;;;26.50
69552;BMP280;63774;45.292;11.784;2023-06-19T11:50:53;101856.52;;;26.50
69552;BMP280;63774;45.292;11.784;2023-06-19T11:53:20;101857.56;;;26.50
69552;BMP280;63774;45.292;11.784;2023-06-19T11:55:46;101857.81;;;26.50
69552;BMP280;63774;45.292;11.784;2023-06-19T11:58:11;101855.20;;;26.49
69552;BMP280;63774;45.292;11.784;2023-06-19T12:00:37;101855.33;;;26.50
69552;BMP280;63774;45.292;11.784;2023-06-19T12:03:03;101852.12;;;26.50
69552;BMP280;63774;45.292;11.784;2023-06-19T12:05:29;101851.81;;;26.51
69552;BMP280;63774;45.292;11.784;2023-06-19T12:07:54;101853.65;;;26.52
69552;BMP280;63774;45.292;11.784;2023-06-19T12:10:20;101851.46;;;26.51
69552;BMP280;63774;45.292;11.784;2023-06-19T12:12:45;101853.24;;;26.50
69552;BMP280;63774;45.292;11.784;2023-06-19T12:15:11;101851.27;;;26.50
69552;BMP280;63774;45.292;11.784;2023-06-19T12:17:36;101848.02;;;26.50
69552;BMP280;63774;45.292;11.784;2023-06-19T12:20:03;101846.71;;;26.50
69552;BMP280;63774;45.292;11.784;2023-06-19T12:22:33;101840.97;;;26.51
69552;BMP280;63774;45.292;11.784;2023-06-19T12:24:58;101836.02;;;26.51
69552;BMP280;63774;45.292;11.784;2023-06-19T12:27:24;101835.78;;;26.52
69552;BMP280;63774;45.292;11.784;2023-06-19T12:29:49;101839.40;;;26.52
69552;BMP280;63774;45.292;11.784;2023-06-19T12:32:15;101838.15;;;26.52
69552;BMP280;63774;45.292;11.784;2023-06-19T12:34:40;101832.17;;;26.51
69552;BMP280;63774;45.292;11.784;2023-06-19T12:37:14;101833.55;;;26.52
69552;BMP280;63774;45.292;11.784;2023-06-19T12:39:40;101832.46;;;26.52
69552;BMP280;63774;45.292;11.784;2023-06-19T12:42:06;101830.64;;;26.52
69552;BMP280;63774;45.292;11.784;2023-06-19T12:44:31;101833.00;;;26.52
69552;BMP280;63774;45.292;11.784;2023-06-19T12:46:57;101829.62;;;26.53
69552;BMP280;63774;45.292;11.784;2023-06-19T12:49:23;101823.29;;;26.51
69552;BMP280;63774;45.292;11.784;2023-06-19T12:51:49;101818.84;;;26.53
69552;BMP280;63774;45.292;11.784;2023-06-19T12:54:17;101818.50;;;26.52
69552;BMP280;63774;45.292;11.784;2023-06-19T12:56:42;101817.17;;;26.54
69552;BMP280;63774;45.292;11.784;2023-06-19T12:59:07;101812.61;;;26.52
69552;BMP280;63774;45.292;11.784;2023-06-19T13:01:33;101812.47;;;26.52
69552;BMP280;63774;45.292;11.784;2023-06-19T13:03:58;101808.86;;;26.52
69552;BMP280;63774;45.292;11.784;2023-06-19T13:06:24;101808.13;;;26.52
69552;BMP280;63774;45.292;11.784;2023-06-19T13:08:49;101809.19;;;26.52
69552;BMP280;63774;45.292;11.784;2023-06-19T13:11:15;101810.05;;;26.52
69552;BMP280;63774;45.292;11.784;2023-06-19T13:13:40;101807.17;;;26.51
69552;BMP280;63774;45.292;11.784;2023-06-19T13:16:05;101804.13;;;26.51
69552;BMP280;63774;45.292;11.784;2023-06-19T13:18:31;101804.35;;;26.51
69552;BMP280;63774;45.292;11.784;2023-06-19T13:20:56;101801.48;;;26.50
69552;BMP280;63774;45.292;11.784;2023-06-19T13:23:22;101798.09;;;26.50
69552;BMP280;63774;45.292;11.784;2023-06-19T13:25:47;101795.69;;;26.51
69552;BMP280;63774;45.292;11.784;2023-06-19T13:28:12;101793.11;;;26.50
69552;BMP280;63774;45.292;11.784;2023-06-19T13:30:38;101792.98;;;26.51
69552;BMP280;63774;45.292;11.784;2023-06-19T13:33:03;101791.16;;;26.51
69552;BMP280;63774;45.292;11.784;2023-06-19T13:35:29;101789.79;;;26.51
69552;BMP280;63774;45.292;11.784;2023-06-19T13:37:56;101789.62;;;26.51
69552;BMP280;63774;45.292;11.784;2023-06-19T13:40:21;101788.23;;;26.52
69552;BMP280;63774;45.292;11.784;2023-06-19T13:42:47;101785.88;;;26.51
69552;BMP280;63774;45.292;11.784;2023-06-19T13:45:13;101791.82;;;26.51